ADDS TAF Board (Experimental) INFO Settings
IDs: Format: Expanded Condensed

KEWR - Newark Intl, NJ, US

Issued at 0830 UTC 30 Apr 2016
Updated at: 0901 UTC 30 Apr 2016
Time0851Z 30/10Z 30/11Z 30/12Z 30/13Z 30/14Z 30/15Z 30/16Z 30/17Z 30/18Z 30/19Z 30/20Z 30/21Z 30/22Z
Type OBS PRVL PRVL PRVL PRVL PRVL PRVL PRVL PRVL PRVL PRVL PRVL PRVL PRVL
VIS 10 >6 >6 >6 >6 >6 >6 >6 >6 >6 >6 >6 >6 >6
CIG 26 45 45 45 45 45 -- -- -- -- -- -- -- --
Cover OVC BKN BKN BKN BKN BKN SCT SCT SCT SCT SCT SCT SCT SCT
FltCat MVFR VFR VFR VFR VFR VFR VFR VFR VFR VFR VFR VFR VFR VFR
WX -- -- -- -- -- -- -- -- -- -- -- -- -- --
WDir 20 30 30 30 30 30 100 100 150 150 150 150 150 150
WSpd 7 9 9 9 9 9 7 7 9 9 9 9 9 9
WGst -- -- -- -- -- -- -- -- -- -- -- -- -- --
R04/22
XWnd 1 -1 -1 -1 -1 -1 -7 -7 -7 -7 -7 -7 -7 -7
HWnd 7 9 9 9 9 9 2 2 -5 -5 -5 -5 -5 -5
R11/29
XWnd 7 8 8 8 8 8 -1 -1 -7 -7 -7 -7 -7 -7
HWnd 2 4 4 4 4 4 7 7 5 5 5 5 5 5

NOTE: TEMPO conditions in [brackets]. Keep in mind TEMPO conditions might be better (lower impact) than prevailing conditions.

Raw TAF
KEWR 300830Z 3009/0112 03009KT P6SM FEW020 BKN045
  FM301500 10007KT P6SM SCT060 SCT250
  FM301700 15009KT P6SM SCT250
  FM010300 13005KT P6SM SCT080 BKN120


Raw METAR
KEWR 300851Z 02007KT 10SM SCT014 BKN026 OVC040 07/06 A3017 RMK AO2 SLP215 T00720061 53002
KEWR 300838Z 36009KT 10SM SCT012 BKN026 OVC040 07/06 A3017 RMK AO2
KEWR 300751Z 01009KT 10SM SCT011 OVC038 08/06 A3016 RMK AO2 SLP213 T00780061
KEWR 300651Z 01006KT 10SM SCT012 OVC040 08/06 A3014 RMK AO2 SLP207 T00830061

METAR Board
Radar Display
Forecast Discussion

TAF Board Legend

Potential Impact
Threat None Slight Moderate High
Visibility (sm) ≥5.1 5.1>X≥3 3>X≥1 <1
Ceiling (100 ft) ≥30.1 30.1>X≥10 10>X≥5 <5
Wind Speed (kt) <10 10≤X<20 20≤X<30 ≥30
Wind Gust (kt) <15 15≤X<25 25≤X<35 ≥35
Weather No Wx Reported VCTS,-TS,-FZRA,SN TS,FZRA +TS,+FZRA,+SN